Time;durP1;ratioP1;P1;durP2;ratioP2;P2;SDS_P1;SDS_P2;PMS_P1;PMS_P2;Temp;Humidity;BMP_temperature;BMP_pressure;BME280_temperature;BME280_humidity;BME280_pressure;Samples;Min_cycle;Max_cycle;Signal;HPM_P1;HPM_P2
2022/06/26 00:00:29;;;;;;;9.95;9.65;;;19.10;99.90;;;;;;5100653;28;20241;-82
2022/06/26 00:02:57;;;;;;;10.00;9.70;;;19.00;99.90;;;;;;5101820;28;20285;-81
2022/06/26 00:05:25;;;;;;;9.95;9.65;;;18.90;99.90;;;;;;5100436;28;20232;-81
2022/06/26 00:07:52;;;;;;;9.90;9.60;;;18.90;99.90;;;;;;5100659;28;20297;-81
2022/06/26 00:10:20;;;;;;;9.68;9.38;;;18.80;99.90;;;;;;5100466;28;20287;-82
2022/06/26 00:12:49;;;;;;;9.77;9.48;;;18.80;99.90;;;;;;5100143;28;20285;-82
2022/06/26 00:15:17;;;;;;;9.65;9.35;;;18.70;99.90;;;;;;5100165;28;20253;-82
2022/06/26 00:17:44;;;;;;;9.70;9.40;;;18.70;99.90;;;;;;5100538;28;20233;-82
2022/06/26 00:20:12;;;;;;;9.75;9.45;;;18.70;99.90;;;;;;5100509;28;20264;-82
2022/06/26 00:22:41;;;;;;;9.55;9.25;;;18.70;99.90;;;;;;5101009;28;20760;-82
2022/06/26 00:25:10;;;;;;;9.75;9.45;;;18.60;99.90;;;;;;5100722;28;20229;-82
2022/06/26 00:27:38;;;;;;;9.70;9.40;;;18.60;99.90;;;;;;5101554;28;20248;-82
2022/06/26 00:30:08;;;;;;;9.63;9.32;;;18.60;99.90;;;;;;5101523;28;20237;-81
2022/06/26 00:32:36;;;;;;;9.68;9.38;;;18.50;99.90;;;;;;5101298;28;20324;-81
2022/06/26 00:35:04;;;;;;;9.50;9.20;;;18.50;99.90;;;;;;5110056;28;20225;-81
2022/06/26 00:37:32;;;;;;;9.55;9.25;;;18.40;99.90;;;;;;5112409;28;20312;-82
2022/06/26 00:39:59;;;;;;;9.52;9.23;;;18.40;99.90;;;;;;5116835;28;20257;-82
2022/06/26 00:42:27;;;;;;;9.80;9.50;;;18.40;99.90;;;;;;5118728;28;20232;-82
2022/06/26 00:44:56;;;;;;;9.95;9.65;;;18.30;99.90;;;;;;5113172;28;20241;-82
2022/06/26 00:47:25;;;;;;;9.90;9.60;;;18.30;99.90;;;;;;5104242;28;20332;-82
2022/06/26 00:49:58;;;;;;;10.00;9.70;;;18.30;99.90;;;;;;5103358;28;20225;-83
2022/06/26 00:52:28;;;;;;;9.68;9.38;;;18.30;99.90;;;;;;5102621;28;20321;-84
2022/06/26 00:54:57;;;;;;;9.80;9.50;;;18.20;99.90;;;;;;5102394;28;20225;-84
2022/06/26 00:57:28;;;;;;;9.50;9.20;;;18.20;99.90;;;;;;5103038;28;20261;-84
2022/06/26 00:59:58;;;;;;;9.68;9.38;;;18.10;99.90;;;;;;5102772;28;20241;-84
2022/06/26 01:02:28;;;;;;;9.65;9.35;;;18.00;99.90;;;;;;5103908;28;20275;-84
2022/06/26 01:04:56;;;;;;;9.75;9.45;;;18.00;99.90;;;;;;5104293;28;20225;-85
2022/06/26 01:07:24;;;;;;;9.75;9.45;;;17.90;99.90;;;;;;5104704;28;20229;-84
2022/06/26 01:09:54;;;;;;;9.80;9.50;;;17.90;99.90;;;;;;5113572;27;20210;-89
2022/06/26 01:12:24;;;;;;;9.80;9.50;;;17.80;99.90;;;;;;5120559;27;20217;-87
2022/06/26 01:14:53;;;;;;;9.60;9.30;;;17.70;99.90;;;;;;5105112;28;20320;-84
2022/06/26 01:17:22;;;;;;;9.95;9.65;;;17.70;99.90;;;;;;5100849;28;20225;-84
2022/06/26 01:20:02;;;;;;;9.80;9.50;;;17.70;99.90;;;;;;5101132;28;20236;-84
2022/06/26 01:22:33;;;;;;;9.75;9.45;;;17.70;99.90;;;;;;5100477;28;20248;-84
2022/06/26 01:25:00;;;;;;;9.60;9.30;;;17.70;99.90;;;;;;5099940;28;20705;-84
2022/06/26 01:27:30;;;;;;;9.55;9.25;;;17.70;99.90;;;;;;5103190;28;20260;-84
2022/06/26 01:29:59;;;;;;;9.75;9.45;;;17.70;99.90;;;;;;5103310;28;20275;-84
2022/06/26 01:32:30;;;;;;;10.00;9.70;;;17.70;99.90;;;;;;5102259;28;20225;-85
2022/06/26 01:34:58;;;;;;;9.80;9.50;;;17.70;99.90;;;;;;5102349;28;20229;-83
2022/06/26 01:37:27;;;;;;;9.82;9.52;;;17.60;99.90;;;;;;5101968;28;20316;-84
2022/06/26 01:42:44;;;;;;;9.90;9.60;;;17.60;99.90;;;;;;5099097;28;20304;-85
2022/06/26 01:45:13;;;;;;;9.90;9.60;;;17.50;99.90;;;;;;5099085;28;20282;-84
2022/06/26 01:47:43;;;;;;;10.05;9.75;;;17.50;99.90;;;;;;5099684;28;20290;-84
2022/06/26 01:50:12;;;;;;;10.20;9.90;;;17.40;99.90;;;;;;5099554;28;20237;-83
2022/06/26 01:52:41;;;;;;;9.77;9.48;;;17.30;99.90;;;;;;5099805;28;20241;-84
2022/06/26 01:55:13;;;;;;;10.10;9.80;;;17.30;99.90;;;;;;5099652;28;20316;-84
2022/06/26 01:57:41;;;;;;;10.13;9.82;;;17.20;99.90;;;;;;5100041;28;20311;-85
2022/06/26 02:00:10;;;;;;;10.10;9.80;;;17.20;99.90;;;;;;5099411;28;20237;-84
2022/06/26 02:02:39;;;;;;;9.90;9.60;;;17.10;99.90;;;;;;5099638;28;20237;-84
2022/06/26 02:05:08;;;;;;;9.70;9.40;;;17.10;99.90;;;;;;5099225;28;20240;-85
2022/06/26 02:07:39;;;;;;;10.00;9.70;;;17.00;99.90;;;;;;5099311;28;20232;-84
2022/06/26 02:15:41;;;;;;;10.23;9.93;;;16.90;99.90;;;;;;5099120;28;20228;-84
2022/06/26 02:18:10;;;;;;;10.05;9.75;;;16.90;99.90;;;;;;5099251;28;20229;-84
2022/06/26 02:20:40;;;;;;;10.00;9.70;;;16.90;99.90;;;;;;5098868;28;20226;-83
2022/06/26 02:23:10;;;;;;;10.00;9.70;;;16.80;99.90;;;;;;5099350;28;20264;-84
2022/06/26 02:25:44;;;;;;;9.95;9.65;;;16.80;99.90;;;;;;5099907;28;20218;-84
2022/06/26 02:28:12;;;;;;;10.02;9.73;;;16.80;99.90;;;;;;5100129;28;20689;-84
2022/06/26 02:30:40;;;;;;;9.90;9.60;;;16.70;99.90;;;;;;5100036;28;20312;-85
2022/06/26 02:33:09;;;;;;;10.05;9.75;;;16.70;99.90;;;;;;5099495;28;20253;-86
2022/06/26 02:35:38;;;;;;;10.18;9.88;;;16.70;99.90;;;;;;5101293;28;20243;-84
2022/06/26 02:38:08;;;;;;;10.07;9.77;;;16.70;99.90;;;;;;5102334;28;20246;-85
2022/06/26 02:40:37;;;;;;;10.15;9.85;;;16.70;99.90;;;;;;5102796;28;20387;-83
2022/06/26 02:45:53;;;;;;;9.93;9.63;;;16.70;99.90;;;;;;5101429;28;20221;-84
2022/06/26 02:48:23;;;;;;;10.00;9.70;;;16.70;99.90;;;;;;5102337;28;20332;-84
2022/06/26 02:50:52;;;;;;;10.20;9.90;;;16.70;99.90;;;;;;5102472;28;20317;-84
2022/06/26 02:53:22;;;;;;;10.00;9.70;;;16.70;99.90;;;;;;5102200;28;20327;-85
2022/06/26 02:55:51;;;;;;;10.10;9.80;;;16.70;99.90;;;;;;5102593;28;20230;-83
2022/06/26 03:01:08;;;;;;;9.90;9.60;;;16.70;99.90;;;;;;5100122;28;20229;-82
2022/06/26 03:03:37;;;;;;;10.10;9.80;;;16.80;99.90;;;;;;5104712;28;20265;-83
2022/06/26 03:06:07;;;;;;;9.90;9.60;;;16.80;99.90;;;;;;5103912;28;20792;-83
2022/06/26 03:08:37;;;;;;;9.90;9.60;;;16.80;99.90;;;;;;5104320;28;20264;-83
2022/06/26 03:11:05;;;;;;;9.82;9.52;;;16.70;99.90;;;;;;5103882;28;20237;-83
2022/06/26 03:13:39;;;;;;;10.10;9.80;;;16.70;99.90;;;;;;5103093;28;20225;-84
2022/06/26 03:16:07;;;;;;;9.80;9.50;;;16.70;99.90;;;;;;5102241;28;20225;-81
2022/06/26 03:18:34;;;;;;;10.00;9.70;;;16.60;99.90;;;;;;5102309;28;20237;-81
2022/06/26 03:21:02;;;;;;;10.02;9.73;;;16.60;99.90;;;;;;5101774;28;20582;-82
2022/06/26 03:26:11;;;;;;;10.18;9.88;;;16.60;99.90;;;;;;5100287;28;20259;-82
2022/06/26 03:28:40;;;;;;;10.00;9.70;;;16.60;99.90;;;;;;5102362;28;20229;-81
2022/06/26 03:31:08;;;;;;;10.18;9.88;;;16.60;99.90;;;;;;5102592;28;20272;-81
2022/06/26 03:33:36;;;;;;;10.07;9.77;;;16.50;99.90;;;;;;5101832;28;20231;-82
2022/06/26 03:36:03;;;;;;;10.10;9.80;;;16.50;99.90;;;;;;5101448;28;20290;-82
2022/06/26 03:38:31;;;;;;;10.07;9.77;;;16.50;99.90;;;;;;5102359;28;20229;-82
2022/06/26 03:40:59;;;;;;;9.93;9.63;;;16.50;99.90;;;;;;5102320;28;20298;-81
2022/06/26 03:43:26;;;;;;;9.93;9.63;;;16.40;99.90;;;;;;5104417;28;20230;-82
2022/06/26 03:45:56;;;;;;;10.20;9.90;;;16.40;99.90;;;;;;5116276;28;20208;-81
2022/06/26 03:48:24;;;;;;;10.10;9.80;;;16.30;99.90;;;;;;5118148;28;20269;-81
2022/06/26 03:50:51;;;;;;;10.07;9.77;;;16.30;99.90;;;;;;5117641;28;20233;-80
2022/06/26 03:53:19;;;;;;;10.00;9.70;;;16.30;99.90;;;;;;5117515;28;20233;-82
2022/06/26 03:55:47;;;;;;;10.23;9.93;;;16.30;99.90;;;;;;5117559;28;20221;-81
2022/06/26 03:58:14;;;;;;;10.00;9.70;;;16.30;99.90;;;;;;5120873;27;20241;-80
2022/06/26 04:00:42;;;;;;;10.05;9.75;;;16.30;99.90;;;;;;5119575;28;20622;-79
2022/06/26 04:03:11;;;;;;;10.25;9.95;;;16.40;99.90;;;;;;5120138;27;20233;-79
2022/06/26 04:05:39;;;;;;;10.05;9.75;;;16.40;99.90;;;;;;5120175;27;20212;-81
2022/06/26 04:08:07;;;;;;;10.23;9.93;;;16.40;99.90;;;;;;5121339;27;20228;-80
2022/06/26 04:10:36;;;;;;;10.20;9.90;;;16.50;99.90;;;;;;5121114;27;20245;-81
2022/06/26 04:13:07;;;;;;;10.07;9.77;;;16.50;99.90;;;;;;5120997;27;20329;-82
2022/06/26 04:15:37;;;;;;;10.20;9.90;;;16.50;99.90;;;;;;5120846;27;20214;-81
2022/06/26 04:18:06;;;;;;;9.90;9.60;;;16.60;99.90;;;;;;5121314;27;20229;-81
2022/06/26 04:20:35;;;;;;;10.20;9.90;;;16.70;99.90;;;;;;5120118;27;20249;-82
2022/06/26 04:23:06;;;;;;;10.10;9.80;;;16.70;99.90;;;;;;5117627;28;20225;-82
2022/06/26 04:25:35;;;;;;;9.90;9.60;;;16.80;99.90;;;;;;5114765;28;20249;-82
2022/06/26 04:28:04;;;;;;;9.82;9.52;;;16.90;99.90;;;;;;5112465;28;20288;-81
2022/06/26 04:30:32;;;;;;;9.93;9.63;;;16.90;99.90;;;;;;5111434;28;20375;-82
2022/06/26 04:33:01;;;;;;;9.80;9.50;;;17.00;99.90;;;;;;5109049;28;20225;-83
2022/06/26 04:35:31;;;;;;;9.80;9.50;;;17.10;99.90;;;;;;5108279;28;20237;-83
2022/06/26 04:38:03;;;;;;;9.80;9.50;;;17.10;99.90;;;;;;5107088;28;20234;-84
2022/06/26 04:40:31;;;;;;;9.73;9.43;;;17.10;99.90;;;;;;5107697;28;20356;-83
2022/06/26 04:42:59;;;;;;;9.88;9.57;;;17.10;99.90;;;;;;5106535;28;20226;-82
2022/06/26 04:45:29;;;;;;;10.10;9.80;;;17.10;99.90;;;;;;5106333;28;20281;-82
2022/06/26 04:47:58;;;;;;;10.15;9.85;;;17.10;99.90;;;;;;5105011;28;20293;-83
2022/06/26 04:50:27;;;;;;;10.00;9.70;;;17.20;99.90;;;;;;5104993;28;20241;-83
2022/06/26 04:52:57;;;;;;;10.10;9.80;;;17.20;99.90;;;;;;5111448;28;20285;-82
2022/06/26 04:55:28;;;;;;;9.90;9.60;;;17.20;99.90;;;;;;5116187;28;20252;-81
2022/06/26 04:57:56;;;;;;;10.07;9.77;;;17.30;99.90;;;;;;5116598;28;20312;-82
2022/06/26 05:00:23;;;;;;;10.00;9.70;;;17.30;99.90;;;;;;5131662;22;20214;-82
2022/06/26 05:02:51;;;;;;;9.90;9.60;;;17.40;99.90;;;;;;5091656;28;20238;-85
2022/06/26 05:05:18;;;;;;;10.00;9.70;;;17.40;99.90;;;;;;5089677;28;20269;-84
2022/06/26 05:07:46;;;;;;;10.00;9.70;;;17.50;99.90;;;;;;5086797;28;20356;-85
2022/06/26 05:10:14;;;;;;;9.70;9.40;;;17.60;99.90;;;;;;5087457;28;20232;-85
2022/06/26 05:12:47;;;;;;;9.88;9.57;;;17.70;99.90;;;;;;5089111;28;20250;-85
2022/06/26 05:15:14;;;;;;;10.10;9.80;;;17.80;99.90;;;;;;5084593;28;20214;-84
2022/06/26 05:17:43;;;;;;;10.05;9.75;;;17.80;99.90;;;;;;5099055;28;20230;-85
2022/06/26 05:20:12;;;;;;;10.10;9.80;;;17.90;99.90;;;;;;5097680;28;20240;-84
2022/06/26 05:22:41;;;;;;;10.00;9.70;;;18.00;99.90;;;;;;5088939;27;20250;-84
2022/06/26 05:25:10;;;;;;;9.95;9.65;;;18.10;99.90;;;;;;5082202;28;20253;-84
2022/06/26 05:27:40;;;;;;;9.77;9.48;;;18.30;99.90;;;;;;5081957;28;20301;-84
2022/06/26 05:30:12;;;;;;;9.80;9.50;;;18.40;99.90;;;;;;5081839;28;20254;-83
2022/06/26 05:32:40;;;;;;;9.82;9.52;;;18.50;99.90;;;;;;5087340;28;20214;-84
2022/06/26 05:35:09;;;;;;;9.90;9.60;;;18.60;99.90;;;;;;5081527;28;20305;-84
2022/06/26 05:37:37;;;;;;;9.85;9.55;;;18.80;99.90;;;;;;5081235;28;20322;-84
2022/06/26 05:40:08;;;;;;;9.82;9.52;;;18.90;99.90;;;;;;5080481;28;20288;-84
2022/06/26 05:42:36;;;;;;;9.73;9.43;;;19.00;99.90;;;;;;5080857;28;20358;-84
2022/06/26 05:45:07;;;;;;;10.10;9.80;;;19.10;99.90;;;;;;5080313;28;20257;-85
2022/06/26 05:47:39;;;;;;;10.07;9.77;;;19.10;99.90;;;;;;5080487;28;20408;-84
2022/06/26 05:50:07;;;;;;;9.98;9.68;;;19.20;99.90;;;;;;5079771;28;20264;-84
2022/06/26 05:52:35;;;;;;;10.10;9.80;;;19.40;99.90;;;;;;5079957;28;20309;-84
2022/06/26 05:55:03;;;;;;;10.10;9.80;;;19.50;99.90;;;;;;5080466;28;20286;-84
2022/06/26 05:57:34;;;;;;;10.10;9.80;;;19.60;99.90;;;;;;5079699;28;20229;-85
2022/06/26 06:00:05;;;;;;;10.20;9.90;;;19.70;99.90;;;;;;5079659;28;20421;-83
2022/06/26 06:02:32;;;;;;;10.15;9.85;;;19.80;99.90;;;;;;5078992;28;20238;-84
2022/06/26 06:05:02;;;;;;;10.02;9.73;;;19.90;99.90;;;;;;5079115;28;20230;-84
2022/06/26 06:07:31;;;;;;;10.20;9.90;;;20.00;99.90;;;;;;5079289;28;20297;-84
2022/06/26 06:10:01;;;;;;;10.05;9.75;;;20.20;99.90;;;;;;5081883;28;20316;-84
2022/06/26 06:12:29;;;;;;;10.02;9.73;;;20.40;99.90;;;;;;5082812;28;20265;-84
2022/06/26 06:15:01;;;;;;;10.32;10.02;;;20.50;99.90;;;;;;5082894;28;20314;-84
2022/06/26 06:17:40;;;;;;;10.15;9.85;;;20.60;99.90;;;;;;5082365;28;20249;-84
2022/06/26 06:20:14;;;;;;;10.20;9.90;;;20.70;99.90;;;;;;5082574;28;20229;-84
2022/06/26 06:22:45;;;;;;;10.32;10.02;;;20.90;99.90;;;;;;5081979;28;20234;-84
2022/06/26 06:25:18;;;;;;;10.20;9.90;;;20.90;99.90;;;;;;5081933;28;20776;-84
2022/06/26 06:27:46;;;;;;;10.15;9.85;;;21.10;99.90;;;;;;5082054;28;20325;-84
2022/06/26 06:30:15;;;;;;;10.40;10.10;;;21.20;99.90;;;;;;5093045;28;20226;-84
2022/06/26 06:32:45;;;;;;;10.40;10.10;;;21.30;99.90;;;;;;5084847;28;20249;-85
2022/06/26 06:35:17;;;;;;;10.38;10.07;;;21.50;99.90;;;;;;5083662;28;20244;-84
2022/06/26 06:37:46;;;;;;;10.57;10.27;;;21.60;99.90;;;;;;5083298;28;20329;-84
2022/06/26 06:40:15;;;;;;;10.40;10.10;;;21.70;99.90;;;;;;5082293;28;20261;-85
2022/06/26 06:42:44;;;;;;;10.50;10.20;;;21.90;99.90;;;;;;5082235;28;20261;-85
2022/06/26 06:45:12;;;;;;;10.60;10.30;;;22.00;99.90;;;;;;5082234;28;20237;-84
2022/06/26 06:47:40;;;;;;;10.80;10.50;;;22.20;99.90;;;;;;5081952;28;20269;-84
2022/06/26 06:50:10;;;;;;;10.60;10.30;;;22.40;99.90;;;;;;5081404;28;20234;-84
2022/06/26 06:52:40;;;;;;;10.88;10.57;;;22.40;99.90;;;;;;5081008;28;20573;-84
2022/06/26 06:55:09;;;;;;;10.70;10.40;;;22.60;99.90;;;;;;5081148;28;20257;-84
2022/06/26 06:57:37;;;;;;;10.90;10.60;;;22.70;99.90;;;;;;5081502;28;20309;-84
2022/06/26 07:00:08;;;;;;;10.68;10.38;;;22.80;99.90;;;;;;5081114;28;20230;-84
2022/06/26 07:02:38;;;;;;;10.68;10.38;;;22.90;99.90;;;;;;5081789;28;20245;-84
2022/06/26 07:05:08;;;;;;;10.68;10.38;;;23.10;99.90;;;;;;5082027;28;20286;-84
2022/06/26 07:07:37;;;;;;;10.70;10.40;;;23.20;99.90;;;;;;5094484;28;20241;-84
2022/06/26 07:10:09;;;;;;;10.60;10.30;;;23.30;99.90;;;;;;5101029;28;20245;-85
2022/06/26 07:12:37;;;;;;;10.80;10.50;;;23.50;99.90;;;;;;5100796;28;20289;-86
2022/06/26 07:15:06;;;;;;;10.65;10.35;;;23.50;99.90;;;;;;5092628;28;20229;-84
2022/06/26 07:17:34;;;;;;;10.73;10.43;;;23.60;99.90;;;;;;5087221;28;20261;-84
2022/06/26 07:20:15;;;;;;;10.73;10.43;;;23.70;99.90;;;;;;5087998;28;20230;-85
2022/06/26 07:22:43;;;;;;;10.75;10.45;;;23.70;99.90;;;;;;5087273;28;20257;-85
2022/06/26 07:25:13;;;;;;;10.85;10.55;;;23.90;99.90;;;;;;5086738;28;20254;-85
2022/06/26 07:27:42;;;;;;;10.85;10.55;;;24.10;99.90;;;;;;5084869;28;20226;-84
2022/06/26 07:30:11;;;;;;;10.70;10.40;;;24.20;99.90;;;;;;5083638;28;20241;-84
2022/06/26 07:32:41;;;;;;;10.90;10.60;;;24.20;99.90;;;;;;5083396;28;20233;-82
2022/06/26 07:35:09;;;;;;;11.00;10.70;;;24.30;99.90;;;;;;5086814;28;20286;-82
2022/06/26 07:37:37;;;;;;;11.20;10.90;;;24.40;99.90;;;;;;5083504;28;20420;-81
2022/06/26 07:40:06;;;;;;;10.95;10.65;;;24.40;99.90;;;;;;5082064;28;20277;-80
2022/06/26 07:42:35;;;;;;;11.00;10.70;;;24.50;99.90;;;;;;5079800;28;20232;-78
2022/06/26 07:45:03;;;;;;;10.93;10.63;;;24.60;99.90;;;;;;5078446;28;20306;-79
2022/06/26 07:47:30;;;;;;;11.13;10.82;;;24.70;99.90;;;;;;5077876;28;20240;-79
2022/06/26 07:49:58;;;;;;;10.90;10.60;;;24.80;99.90;;;;;;5079875;28;20306;-83
2022/06/26 07:52:26;;;;;;;10.90;10.60;;;24.90;99.90;;;;;;5087077;28;20340;-82
2022/06/26 07:54:53;;;;;;;11.10;10.80;;;25.00;99.90;;;;;;5087341;28;20227;-83
2022/06/26 07:57:21;;;;;;;10.80;10.50;;;25.00;99.90;;;;;;5085472;28;20309;-83
2022/06/26 07:59:50;;;;;;;11.10;10.80;;;25.00;99.90;;;;;;5088642;28;20230;-85
2022/06/26 08:02:17;;;;;;;10.98;10.68;;;25.10;99.90;;;;;;5086597;28;20257;-85
2022/06/26 08:04:45;;;;;;;10.90;10.60;;;25.10;99.90;;;;;;5084794;28;20226;-84
2022/06/26 08:07:13;;;;;;;10.75;10.45;;;25.20;99.90;;;;;;5085187;28;20310;-86
2022/06/26 08:09:40;;;;;;;10.90;10.60;;;25.30;99.90;;;;;;5086592;28;20230;-85
2022/06/26 08:12:09;;;;;;;10.70;10.40;;;25.30;99.90;;;;;;5087455;28;20238;-85
2022/06/26 08:14:38;;;;;;;10.80;10.50;;;25.50;99.90;;;;;;5088061;28;20257;-84
2022/06/26 08:17:08;;;;;;;10.60;10.30;;;25.60;99.90;;;;;;5084410;28;20257;-83
2022/06/26 08:19:36;;;;;;;10.57;10.27;;;25.60;99.90;;;;;;5085839;28;20226;-84
2022/06/26 08:22:04;;;;;;;10.52;10.23;;;25.80;99.90;;;;;;5084960;28;20256;-85
2022/06/26 08:24:35;;;;;;;10.75;10.45;;;25.90;99.90;;;;;;5086351;28;20214;-84
2022/06/26 08:27:03;;;;;;;10.70;10.40;;;26.00;99.90;;;;;;5087298;28;20324;-84
2022/06/26 08:29:31;;;;;;;10.65;10.35;;;26.10;99.90;;;;;;5086787;28;20234;-81
2022/06/26 08:32:05;;;;;;;10.88;10.57;;;26.10;99.90;;;;;;5084198;28;20233;-85
2022/06/26 08:34:38;;;;;;;11.00;10.70;;;26.30;99.90;;;;;;5082253;28;20226;-85
2022/06/26 08:37:10;;;;;;;11.00;10.70;;;26.40;99.90;;;;;;5104266;28;20261;-86
2022/06/26 08:39:40;;;;;;;10.75;10.45;;;26.50;99.90;;;;;;5107208;28;20236;-85
2022/06/26 08:42:09;;;;;;;10.95;10.65;;;26.70;99.90;;;;;;5105473;28;20367;-86
2022/06/26 08:44:48;;;;;;;10.70;10.40;;;26.90;99.90;;;;;;5103845;28;20240;-85
2022/06/26 08:47:20;;;;;;;10.70;10.40;;;27.10;99.90;;;;;;5105494;28;20225;-85
2022/06/26 08:49:50;;;;;;;11.00;10.70;;;27.20;99.90;;;;;;5100467;28;20238;-85
2022/06/26 08:52:25;;;;;;;10.77;10.48;;;27.30;99.90;;;;;;5099929;28;20282;-85
2022/06/26 08:54:54;;;;;;;10.65;10.35;;;27.40;99.90;;;;;;5100666;28;20241;-86
2022/06/26 08:57:24;;;;;;;10.85;10.55;;;27.50;99.90;;;;;;5100486;28;20260;-87
2022/06/26 08:59:52;;;;;;;10.80;10.50;;;27.60;99.90;;;;;;5102993;28;20316;-86
2022/06/26 09:02:22;;;;;;;10.80;10.50;;;27.70;99.90;;;;;;5101296;28;20297;-86
2022/06/26 09:04:51;;;;;;;10.93;10.63;;;28.00;99.90;;;;;;5100575;28;20225;-85
2022/06/26 09:07:27;;;;;;;10.73;10.43;;;28.20;99.90;;;;;;5101341;28;20261;-85
2022/06/26 09:09:54;;;;;;;10.70;10.40;;;28.20;99.90;;;;;;5101028;28;20245;-84
2022/06/26 09:12:22;;;;;;;10.90;10.60;;;28.30;99.90;;;;;;5100777;28;20236;-83
2022/06/26 09:14:54;;;;;;;10.85;10.55;;;28.40;99.90;;;;;;5100743;28;20221;-86
2022/06/26 09:17:24;;;;;;;11.00;10.70;;;28.60;99.90;;;;;;5111153;28;20234;-86
2022/06/26 09:19:57;;;;;;;11.10;10.80;;;28.60;99.90;;;;;;5115910;28;20360;-86
2022/06/26 09:22:38;;;;;;;11.05;10.75;;;29.10;99.90;;;;;;5102339;28;20264;-86
2022/06/26 09:25:06;;;;;;;11.00;10.70;;;29.40;99.90;;;;;;5102611;28;20232;-85
2022/06/26 09:27:42;;;;;;;11.20;10.90;;;29.50;99.90;;;;;;5114630;27;20267;-85
2022/06/26 09:30:13;;;;;;;10.98;10.68;;;29.50;99.90;;;;;;5104133;28;20225;-86
2022/06/26 09:32:41;;;;;;;11.13;10.82;;;29.70;99.90;;;;;;5105011;28;20318;-84
2022/06/26 09:35:11;;;;;;;11.10;10.80;;;30.00;99.90;;;;;;5100265;28;20229;-84
2022/06/26 09:37:39;;;;;;;11.02;10.73;;;30.30;99.90;;;;;;5101363;28;20236;-84
2022/06/26 09:40:09;;;;;;;11.07;10.77;;;30.20;99.90;;;;;;5103262;28;20719;-84
2022/06/26 09:42:37;;;;;;;11.00;10.70;;;30.10;99.90;;;;;;5103358;28;20324;-83
2022/06/26 09:45:09;;;;;;;10.95;10.65;;;30.00;99.90;;;;;;5103937;28;20237;-83
2022/06/26 09:47:39;;;;;;;11.10;10.80;;;30.00;99.90;;;;;;5102910;28;20287;-82
2022/06/26 09:50:10;;;;;;;10.90;10.60;;;30.00;99.90;;;;;;5106605;28;20229;-83
2022/06/26 09:52:38;;;;;;;11.05;10.75;;;29.90;99.90;;;;;;5106901;28;20324;-81
2022/06/26 09:55:09;;;;;;;10.90;10.60;;;30.00;99.90;;;;;;5105764;28;20256;-83
2022/06/26 09:57:38;;;;;;;11.05;10.75;;;30.30;99.90;;;;;;5106339;28;20293;-83
2022/06/26 10:00:09;;;;;;;10.98;10.68;;;30.60;99.90;;;;;;5103774;28;20230;-84
2022/06/26 10:08:17;;;;;;;11.15;10.85;;;31.00;99.90;;;;;;5114917;28;20237;-83
2022/06/26 10:10:47;;;;;;;10.80;10.50;;;31.30;99.90;;;;;;5109288;28;20248;-82
2022/06/26 10:13:15;;;;;;;10.90;10.60;;;31.20;99.90;;;;;;5107431;28;20273;-83
2022/06/26 10:15:51;;;;;;;11.05;10.75;;;31.10;99.90;;;;;;5107235;28;20304;-83
2022/06/26 10:18:44;;;;;;;11.10;10.80;;;31.30;99.90;;;;;;5108773;28;20271;-82
2022/06/26 10:21:13;;;;;;;11.20;10.90;;;31.50;99.90;;;;;;5107437;28;20253;-83
2022/06/26 10:23:43;;;;;;;11.15;10.85;;;31.90;99.90;;;;;;5107393;28;20228;-83
2022/06/26 10:26:16;;;;;;;11.15;10.85;;;32.20;99.90;;;;;;5110893;28;20294;-83
2022/06/26 10:29:01;;;;;;;11.35;11.02;;;32.00;99.90;;;;;;5108309;28;20288;-83
2022/06/26 10:31:31;;;;;;;11.27;10.98;;;31.90;99.90;;;;;;5106391;28;20229;-83
2022/06/26 10:34:11;;;;;;;11.50;11.10;;;32.10;99.90;;;;;;5106028;28;20226;-83
2022/06/26 10:36:40;;;;;;;11.45;11.05;;;32.40;99.90;;;;;;5106551;28;20225;-83
2022/06/26 10:39:08;;;;;;;11.68;11.27;;;32.60;99.90;;;;;;5095990;28;21106;-84
2022/06/26 10:44:38;;;;;;;11.30;11.00;;;32.50;99.90;;;;;;5086372;28;20226;-84
2022/06/26 10:47:15;;;;;;;11.40;11.05;;;32.30;99.90;;;;;;5081000;28;20264;-82
2022/06/26 10:49:52;;;;;;;11.40;11.10;;;32.50;99.90;;;;;;5083728;28;20307;-82
2022/06/26 10:52:28;;;;;;;11.32;11.02;;;32.80;99.90;;;;;;5082356;28;20238;-82
2022/06/26 10:55:00;;;;;;;11.18;10.88;;;33.10;99.90;;;;;;5082420;28;20226;-82
2022/06/26 10:57:35;;;;;;;11.20;10.90;;;33.30;99.90;;;;;;5085138;28;20222;-79
2022/06/26 11:00:06;;;;;;;10.95;10.65;;;33.10;99.90;;;;;;5082589;28;20245;-82
2022/06/26 11:02:41;;;;;;;11.40;11.10;;;33.00;99.90;;;;;;5086883;22;20242;-84
2022/06/26 11:05:11;;;;;;;11.45;11.07;;;33.20;99.90;;;;;;5066059;28;20230;-84
2022/06/26 11:13:15;;;;;;;11.32;11.02;;;33.60;99.90;;;;;;5046724;28;20262;-83
2022/06/26 11:15:45;;;;;;;11.43;11.05;;;33.80;99.90;;;;;;5047860;28;20274;-84
2022/06/26 11:18:13;;;;;;;11.30;11.00;;;34.00;99.90;;;;;;5046721;28;20239;-82
2022/06/26 11:20:51;;;;;;;11.70;11.30;;;34.00;99.90;;;;;;5046309;28;20267;-80
2022/06/26 11:23:29;;;;;;;11.23;10.93;;;34.30;99.90;;;;;;5046001;28;20289;-85
2022/06/26 11:26:18;;;;;;;11.40;11.00;;;34.50;99.90;;;;;;5044819;28;20262;-85
2022/06/26 11:28:49;;;;;;;11.30;11.00;;;34.60;99.90;;;;;;5043476;28;20216;-85
2022/06/26 11:31:24;;;;;;;11.30;11.00;;;34.70;99.90;;;;;;5044417;28;20239;-87
2022/06/26 11:33:55;;;;;;;11.10;10.80;;;34.30;99.90;;;;;;5044508;28;20241;-89
2022/06/26 11:36:26;;;;;;;11.13;10.82;;;34.10;99.90;;;;;;5045445;28;20254;-86
2022/06/26 11:39:03;;;;;;;10.98;10.68;;;34.10;99.90;;;;;;5044800;28;20235;-86
2022/06/26 11:41:31;;;;;;;11.07;10.77;;;34.20;99.90;;;;;;5043324;28;21118;-85
2022/06/26 11:44:01;;;;;;;11.45;11.05;;;34.40;99.90;;;;;;5044245;28;20235;-85
2022/06/26 11:46:29;;;;;;;11.20;10.80;;;34.80;99.90;;;;;;5041570;28;20236;-86
2022/06/26 11:48:58;;;;;;;11.18;10.88;;;34.90;99.90;;;;;;5039926;28;20279;-86
2022/06/26 11:51:26;;;;;;;11.20;10.90;;;34.60;99.90;;;;;;5039893;28;20270;-84
2022/06/26 11:53:55;;;;;;;11.05;10.75;;;34.70;99.90;;;;;;5039569;28;20231;-84
2022/06/26 11:56:25;;;;;;;11.10;10.80;;;34.70;99.90;;;;;;5042022;28;20227;-84
2022/06/26 11:58:55;;;;;;;11.30;11.00;;;34.70;99.90;;;;;;5041272;28;20247;-85
2022/06/26 12:01:23;;;;;;;11.30;11.00;;;34.70;99.90;;;;;;5038111;28;20263;-85
2022/06/26 12:03:54;;;;;;;11.20;10.90;;;35.10;99.90;;;;;;5041818;28;20701;-85
2022/06/26 12:06:37;;;;;;;11.07;10.77;;;35.40;99.90;;;;;;5042204;28;20238;-84
2022/06/26 12:09:20;;;;;;;11.10;10.80;;;35.60;99.90;;;;;;5050797;28;20207;-83
2022/06/26 12:11:50;;;;;;;11.07;10.77;;;35.10;99.90;;;;;;5060696;28;20242;-84
2022/06/26 12:14:19;;;;;;;11.00;10.70;;;34.60;99.90;;;;;;5058002;28;20241;-85
2022/06/26 12:16:48;;;;;;;11.07;10.77;;;34.20;99.90;;;;;;5056113;28;20219;-86
2022/06/26 12:19:17;;;;;;;10.93;10.63;;;33.90;99.90;;;;;;5060483;28;20235;-86
2022/06/26 12:21:46;;;;;;;11.05;10.75;;;34.20;99.90;;;;;;5061410;28;20243;-85
2022/06/26 12:24:17;;;;;;;11.07;10.77;;;34.20;99.90;;;;;;5061403;28;20246;-85
2022/06/26 12:26:46;;;;;;;11.63;11.23;;;34.20;99.90;;;;;;5060779;28;20223;-84
2022/06/26 12:29:17;;;;;;;11.20;10.90;;;34.00;99.90;;;;;;5061137;28;20211;-85
2022/06/26 12:31:45;;;;;;;10.60;10.30;;;34.20;99.90;;;;;;5061115;28;20227;-86
2022/06/26 12:34:13;;;;;;;10.50;10.20;;;34.30;99.90;;;;;;5059678;28;20238;-87
2022/06/26 12:36:43;;;;;;;10.40;10.10;;;34.40;99.90;;;;;;5059891;28;20224;-86
2022/06/26 12:39:11;;;;;;;10.40;10.10;;;34.80;99.90;;;;;;5060713;28;20227;-86
2022/06/26 12:41:54;;;;;;;10.65;10.35;;;35.30;99.90;;;;;;5059978;28;20236;-85
2022/06/26 12:44:22;;;;;;;10.50;10.20;;;36.00;99.90;;;;;;5038779;28;20306;-87
2022/06/26 12:46:54;;;;;;;10.80;10.50;;;36.40;99.90;;;;;;5037460;28;20294;-86
2022/06/26 12:49:25;;;;;;;10.80;10.50;;;35.90;99.90;;;;;;5037081;28;20234;-88
2022/06/26 12:51:53;;;;;;;10.80;10.50;;;35.30;99.90;;;;;;5037304;28;20294;-85
2022/06/26 12:54:24;;;;;;;11.05;10.75;;;34.40;99.90;;;;;;5036624;28;20239;-85
2022/06/26 12:56:54;;;;;;;11.50;11.10;;;33.80;99.90;;;;;;5019934;28;20232;-85
2022/06/26 12:59:21;;;;;;;11.43;11.02;;;33.50;99.90;;;;;;5022472;28;20251;-85
2022/06/26 13:01:49;;;;;;;11.48;11.07;;;33.70;99.90;;;;;;5021585;28;20236;-86
2022/06/26 13:04:17;;;;;;;11.02;10.73;;;34.40;99.90;;;;;;5020676;28;20287;-85
2022/06/26 13:06:45;;;;;;;11.00;10.70;;;35.10;99.90;;;;;;5018300;28;20228;-86
2022/06/26 13:09:13;;;;;;;11.07;10.77;;;35.10;99.90;;;;;;5018191;28;20225;-86
2022/06/26 13:11:42;;;;;;;11.02;10.73;;;34.10;99.90;;;;;;5017926;28;20240;-86
2022/06/26 13:14:11;;;;;;;11.23;10.93;;;33.60;99.90;;;;;;5019897;28;20296;-85
2022/06/26 13:16:40;;;;;;;11.10;10.80;;;33.30;99.90;;;;;;5022476;28;20299;-85